createdAt,value
2018-03-27T00:01:58.186Z,70.50
2018-03-27T00:04:25.649Z,75.30
2018-03-27T00:06:53.097Z,72.70
2018-03-27T00:09:20.571Z,78.33
2018-03-27T00:11:48.020Z,76.30
2018-03-27T00:14:15.487Z,71.10
2018-03-27T00:16:42.940Z,69.00
2018-03-27T00:19:10.396Z,70.53
2018-03-27T00:21:37.857Z,73.50
2018-03-27T00:24:05.307Z,72.13
2018-03-27T00:26:32.765Z,79.67
2018-03-27T00:29:12.151Z,77.20
2018-03-27T00:31:51.584Z,75.43
2018-03-27T00:34:30.972Z,76.23
2018-03-27T00:37:10.428Z,77.23
2018-03-27T00:39:49.690Z,71.97
2018-03-27T00:42:28.951Z,81.00
2018-03-27T00:44:56.399Z,76.60
2018-03-27T00:47:23.864Z,72.10
2018-03-27T00:49:51.317Z,71.87
2018-03-27T00:52:18.790Z,74.60
2018-03-27T00:54:46.243Z,68.47
2018-03-27T00:57:13.704Z,74.33
2018-03-27T00:59:41.159Z,77.63
2018-03-27T01:02:08.623Z,73.87
2018-03-27T01:04:36.076Z,73.70
2018-03-27T01:07:03.527Z,75.07
2018-03-27T01:09:30.994Z,73.20
2018-03-27T01:11:58.437Z,71.53
2018-03-27T01:14:25.889Z,70.63
2018-03-27T01:16:53.344Z,76.60
2018-03-27T01:19:20.799Z,73.73
2018-03-27T01:21:48.306Z,66.37
2018-03-27T01:24:16.531Z,73.33
2018-03-27T01:26:43.988Z,67.63
2018-03-27T01:29:11.445Z,64.90
2018-03-27T01:31:38.903Z,68.50
2018-03-27T01:34:06.361Z,64.80
2018-03-27T01:36:34.577Z,68.60
2018-03-27T01:39:02.796Z,73.87
2018-03-27T01:41:30.250Z,70.97
2018-03-27T01:43:57.708Z,70.07
2018-03-27T01:46:25.161Z,72.70
2018-03-27T01:48:52.624Z,71.53
2018-03-27T01:51:20.068Z,71.50
2018-03-27T01:53:47.528Z,67.43
2018-03-27T01:56:14.988Z,69.43
2018-03-27T01:58:42.440Z,74.47
2018-03-27T02:01:09.901Z,74.00
2018-03-27T02:03:37.352Z,77.00
2018-03-27T02:06:04.820Z,67.97
2018-03-27T02:08:32.273Z,71.10
2018-03-27T02:11:05.480Z,72.67
2018-03-27T02:13:38.616Z,67.30
2018-03-27T02:16:12.577Z,69.13
2018-03-27T02:18:45.749Z,70.77
2018-03-27T02:21:18.986Z,74.17
2018-03-27T02:23:46.431Z,68.07
2018-03-27T02:26:13.892Z,78.13
2018-03-27T02:28:41.336Z,69.83
2018-03-27T02:31:08.797Z,74.90
2018-03-27T02:33:36.262Z,70.53
2018-03-27T02:36:03.713Z,69.97
2018-03-27T02:38:31.172Z,79.10
2018-03-27T02:40:58.628Z,71.50
2018-03-27T02:43:26.084Z,73.43
2018-03-27T02:45:53.528Z,68.30
2018-03-27T02:48:21.002Z,76.53
2018-03-27T02:50:48.467Z,75.20
2018-03-27T02:53:15.929Z,79.07
2018-03-27T02:55:44.144Z,67.63
2018-03-27T02:58:11.608Z,66.37
2018-03-27T03:00:39.070Z,76.40
2018-03-27T03:03:07.297Z,65.83
2018-03-27T03:05:35.520Z,66.30
2018-03-27T03:08:02.973Z,67.40
2018-03-27T03:10:30.419Z,68.83
2018-03-27T03:12:57.893Z,70.00
2018-03-27T03:15:25.337Z,65.80
2018-03-27T03:17:52.796Z,66.77
2018-03-27T03:20:20.248Z,67.40
2018-03-27T03:22:47.704Z,71.53
2018-03-27T03:25:15.158Z,71.53
2018-03-27T03:27:42.615Z,72.27
2018-03-27T03:30:10.072Z,74.87
2018-03-27T03:32:37.540Z,73.17
2018-03-27T03:35:04.983Z,75.37
2018-03-27T03:37:32.449Z,72.73
2018-03-27T03:39:59.892Z,72.00
2018-03-27T03:42:27.437Z,70.97
2018-03-27T03:44:54.894Z,69.90
2018-03-27T03:47:22.352Z,71.37
2018-03-27T03:49:49.808Z,73.63
2018-03-27T03:52:17.272Z,74.00
2018-03-27T03:54:44.724Z,75.67
2018-03-27T03:57:12.185Z,74.00
2018-03-27T03:59:39.653Z,71.37
2018-03-27T04:02:07.116Z,69.47
2018-03-27T04:04:34.569Z,71.27
2018-03-27T04:07:02.026Z,68.83
2018-03-27T04:09:29.484Z,70.37
2018-03-27T04:11:56.929Z,75.13
2018-03-27T04:14:24.392Z,70.53
2018-03-27T04:16:51.854Z,71.30
2018-03-27T04:19:19.332Z,74.13
2018-03-27T04:21:46.786Z,80.00
2018-03-27T04:24:14.251Z,73.07
2018-03-27T04:26:41.696Z,73.23
2018-03-27T04:29:09.147Z,74.17
2018-03-27T04:31:36.599Z,69.37
2018-03-27T04:34:04.050Z,72.80
2018-03-27T04:36:31.509Z,68.33
2018-03-27T04:38:58.952Z,78.87
2018-03-27T04:41:26.412Z,81.80
2018-03-27T04:43:53.901Z,77.23
2018-03-27T04:46:21.363Z,104.03
2018-03-27T04:48:48.824Z,105.13
2018-03-27T04:51:16.283Z,104.03
2018-03-27T04:53:43.741Z,101.67
2018-03-27T04:56:11.213Z,93.40
2018-03-27T04:58:39.430Z,84.33
2018-03-27T05:01:06.898Z,89.67
2018-03-27T05:03:35.326Z,87.97
2018-03-27T05:06:03.570Z,108.73
2018-03-27T05:08:31.040Z,101.37
2018-03-27T05:10:58.515Z,157.53
2018-03-27T05:13:26.732Z,134.03
2018-03-27T05:15:54.180Z,119.97
2018-03-27T05:18:21.706Z,111.30
2018-03-27T05:20:49.168Z,104.53
2018-03-27T05:23:16.624Z,136.63
2018-03-27T05:25:44.080Z,151.67
2018-03-27T05:28:11.540Z,144.20
2018-03-27T05:30:39.003Z,148.27
2018-03-27T05:33:06.465Z,144.43
2018-03-27T05:35:33.921Z,137.13
2018-03-27T05:38:01.380Z,122.17
2018-03-27T05:40:28.842Z,114.63
2018-03-27T05:42:56.296Z,112.00
2018-03-27T05:45:23.750Z,94.33
2018-03-27T05:47:51.228Z,102.60
2018-03-27T05:50:18.683Z,106.07
2018-03-27T05:52:46.144Z,95.47
2018-03-27T05:55:13.596Z,102.10
2018-03-27T05:57:41.047Z,87.03
2018-03-27T06:00:08.533Z,84.07
2018-03-27T06:02:35.976Z,84.30
2018-03-27T06:05:03.479Z,86.33
2018-03-27T06:07:31.680Z,76.00
2018-03-27T06:09:59.137Z,78.13
2018-03-27T06:12:27.516Z,67.87
2018-03-27T06:14:54.982Z,72.80
2018-03-27T06:17:22.425Z,71.17
2018-03-27T06:19:49.884Z,64.43
2018-03-27T06:22:17.330Z,71.20
2018-03-27T06:24:44.776Z,68.37
2018-03-27T06:27:12.231Z,63.83
2018-03-27T06:29:39.672Z,76.93
2018-03-27T06:32:07.952Z,76.00
2018-03-27T06:34:36.176Z,65.83
2018-03-27T06:37:03.745Z,64.57
2018-03-27T06:39:31.201Z,62.30
2018-03-27T06:41:58.692Z,57.77
2018-03-27T06:44:26.905Z,61.70
2018-03-27T06:46:54.364Z,60.47
2018-03-27T06:49:21.812Z,59.87
2018-03-27T06:51:49.268Z,63.13
2018-03-27T06:54:16.721Z,62.23
2018-03-27T06:56:44.172Z,66.23
2018-03-27T06:59:11.628Z,62.07
2018-03-27T07:01:39.088Z,60.53
2018-03-27T07:04:06.535Z,67.60
2018-03-27T07:06:34.016Z,58.67
2018-03-27T07:09:01.468Z,65.23
2018-03-27T07:11:28.920Z,64.53
2018-03-27T07:13:56.400Z,60.07
2018-03-27T07:16:23.822Z,61.13
2018-03-27T07:18:51.272Z,63.77
2018-03-27T07:21:18.756Z,60.27
2018-03-27T07:23:46.940Z,58.77
2018-03-27T07:26:14.393Z,59.67
2018-03-27T07:28:41.840Z,60.77
2018-03-27T07:31:09.297Z,59.27
2018-03-27T07:33:36.759Z,54.40
2018-03-27T07:36:04.209Z,55.37
2018-03-27T07:38:31.668Z,55.77
2018-03-27T07:40:59.114Z,55.57
2018-03-27T07:43:26.585Z,50.27
2018-03-27T07:45:54.038Z,48.70
2018-03-27T07:48:21.494Z,49.37
2018-03-27T07:50:48.990Z,52.13
2018-03-27T07:53:16.442Z,49.57
2018-03-27T07:55:43.897Z,48.70
2018-03-27T07:58:11.354Z,50.30
2018-03-27T08:00:38.814Z,48.60
2018-03-27T08:03:06.269Z,51.07
2018-03-27T08:05:33.725Z,47.53
2018-03-27T08:08:01.176Z,45.10
2018-03-27T08:10:28.632Z,47.53
2018-03-27T08:12:56.083Z,48.17
2018-03-27T08:15:23.541Z,45.43
2018-03-27T08:17:50.995Z,46.40
2018-03-27T08:20:18.460Z,41.63
2018-03-27T08:22:45.912Z,45.40
2018-03-27T08:25:13.372Z,38.60
2018-03-27T08:27:40.828Z,38.23
2018-03-27T08:30:08.293Z,38.30
2018-03-27T08:32:35.750Z,36.50
2018-03-27T08:35:03.213Z,39.23
2018-03-27T08:37:30.659Z,40.33
2018-03-27T08:39:58.122Z,40.23
2018-03-27T08:42:25.581Z,40.67
2018-03-27T08:44:53.040Z,46.33
2018-03-27T08:47:21.255Z,49.40
2018-03-27T08:49:48.719Z,23.03
2018-03-27T08:52:16.173Z,25.37
2018-03-27T08:54:43.628Z,23.90
2018-03-27T08:57:11.081Z,24.17
2018-03-27T08:59:38.540Z,22.63
2018-03-27T09:02:05.998Z,19.27
2018-03-27T09:04:33.456Z,18.43
2018-03-27T09:07:00.909Z,17.33
2018-03-27T09:09:28.360Z,20.83
2018-03-27T09:11:55.821Z,18.27
2018-03-27T09:14:23.280Z,20.07
2018-03-27T09:16:50.736Z,20.43
2018-03-27T09:19:18.192Z,17.70
2018-03-27T09:21:45.652Z,22.20
2018-03-27T09:24:13.104Z,21.97
2018-03-27T09:26:40.570Z,22.50
2018-03-27T09:29:08.022Z,24.53
2018-03-27T09:31:35.469Z,23.70
2018-03-27T09:34:02.928Z,26.67
2018-03-27T09:36:30.386Z,28.27
2018-03-27T09:38:57.841Z,25.90
2018-03-27T09:41:25.299Z,26.20
2018-03-27T09:43:52.756Z,24.00
2018-03-27T09:46:20.203Z,23.23
2018-03-27T09:48:47.656Z,25.30
2018-03-27T09:51:15.122Z,27.70
2018-03-27T09:53:42.568Z,25.40
2018-03-27T09:56:10.051Z,24.90
2018-03-27T09:58:37.506Z,26.58
2018-03-27T10:01:08.754Z,26.25
2018-03-27T10:03:36.211Z,25.90
2018-03-27T10:06:03.655Z,27.63
2018-03-27T10:08:31.112Z,24.87
2018-03-27T10:10:58.564Z,24.87
2018-03-27T10:13:26.028Z,24.47
2018-03-27T10:15:53.491Z,25.10
2018-03-27T10:18:20.947Z,24.40
2018-03-27T10:20:48.408Z,24.90
2018-03-27T10:23:15.868Z,28.93
2018-03-27T10:25:43.343Z,23.97
2018-03-27T10:28:10.793Z,28.07
2018-03-27T10:30:38.265Z,24.73
2018-03-27T10:33:05.764Z,25.90
2018-03-27T10:35:33.188Z,26.07
2018-03-27T10:38:01.408Z,24.90
2018-03-27T10:40:28.872Z,23.00
2018-03-27T10:42:56.327Z,26.67
2018-03-27T10:45:23.844Z,26.50
2018-03-27T10:47:51.237Z,28.40
2018-03-27T10:50:18.692Z,26.70
2018-03-27T10:52:46.148Z,25.47
2018-03-27T10:55:13.608Z,26.73
2018-03-27T10:57:41.065Z,24.33
2018-03-27T11:00:08.536Z,27.67
2018-03-27T11:02:35.993Z,27.57
2018-03-27T11:05:03.449Z,26.10
2018-03-27T11:07:30.899Z,27.97
2018-03-27T11:09:58.402Z,26.67
2018-03-27T11:12:25.820Z,27.87
2018-03-27T11:14:53.276Z,27.87
2018-03-27T11:17:21.501Z,28.03
2018-03-27T11:19:48.956Z,26.00
2018-03-27T11:22:16.416Z,25.10
2018-03-27T11:24:43.881Z,22.47
2018-03-27T11:27:11.341Z,24.73
2018-03-27T11:29:38.799Z,22.00
2018-03-27T11:32:06.255Z,23.97
2018-03-27T11:34:33.708Z,25.63
2018-03-27T11:37:01.167Z,21.83
2018-03-27T11:39:28.621Z,22.63
2018-03-27T11:41:56.078Z,22.60
2018-03-27T11:44:23.533Z,23.60
2018-03-27T11:46:50.989Z,23.47
2018-03-27T11:49:18.437Z,24.10
2018-03-27T11:51:45.888Z,24.03
2018-03-27T11:54:13.343Z,25.30
2018-03-27T11:56:40.800Z,26.00
2018-03-27T11:59:08.256Z,26.07
2018-03-27T12:01:36.491Z,22.87
2018-03-27T12:04:03.929Z,26.47
2018-03-27T12:06:31.380Z,19.90
2018-03-27T12:08:58.834Z,22.70
2018-03-27T12:11:26.280Z,19.83
2018-03-27T12:13:53.732Z,20.73
2018-03-27T12:16:21.195Z,18.70
2018-03-27T12:18:48.671Z,23.60
2018-03-27T12:21:16.124Z,16.73
2018-03-27T12:23:43.593Z,15.83
2018-03-27T12:26:11.056Z,16.10
2018-03-27T12:28:38.507Z,16.43
2018-03-27T12:31:05.972Z,15.97
2018-03-27T12:33:33.422Z,15.33
2018-03-27T12:36:01.142Z,16.73
2018-03-27T12:38:28.612Z,16.40
2018-03-27T12:40:56.082Z,15.33
2018-03-27T12:43:23.537Z,17.60
2018-03-27T12:45:51.052Z,16.43
2018-03-27T12:48:19.268Z,15.57
2018-03-27T12:50:47.500Z,16.97
2018-03-27T12:53:14.983Z,16.43
2018-03-27T12:55:42.416Z,16.50
2018-03-27T12:58:09.864Z,16.10
2018-03-27T13:00:38.087Z,17.23
2018-03-27T13:03:05.553Z,16.03
2018-03-27T13:05:33.019Z,17.40
2018-03-27T13:08:00.469Z,16.07
2018-03-27T13:10:27.939Z,17.40
2018-03-27T13:12:55.395Z,17.73
2018-03-27T13:15:22.844Z,19.20
2018-03-27T13:17:50.296Z,19.10
2018-03-27T13:20:17.755Z,19.27
2018-03-27T13:22:45.229Z,21.17
2018-03-27T13:25:12.688Z,19.90
2018-03-27T13:27:40.150Z,20.63
2018-03-27T13:30:08.369Z,22.60
2018-03-27T13:32:35.913Z,21.10
2018-03-27T13:35:03.392Z,19.97
2018-03-27T13:37:30.852Z,21.43
2018-03-27T13:39:58.315Z,22.13
2018-03-27T13:42:25.771Z,20.43
2018-03-27T13:44:53.229Z,24.03
2018-03-27T13:47:20.683Z,21.03
2018-03-27T13:49:48.144Z,21.37
2018-03-27T13:52:15.596Z,26.07
2018-03-27T13:54:43.048Z,21.13
2018-03-27T13:57:11.280Z,20.47
2018-03-27T13:59:38.735Z,19.33
2018-03-27T14:02:06.197Z,18.47
2018-03-27T14:04:33.648Z,16.50
2018-03-27T14:07:01.108Z,17.40
2018-03-27T14:09:28.569Z,17.73
2018-03-27T14:11:56.040Z,20.23
2018-03-27T14:14:23.492Z,19.10
2018-03-27T14:16:51.049Z,20.07
2018-03-27T14:19:18.500Z,18.50
2018-03-27T14:21:45.954Z,20.47
2018-03-27T14:24:13.409Z,21.47
2018-03-27T14:26:40.873Z,22.57
2018-03-27T14:29:08.321Z,22.20
2018-03-27T14:31:35.776Z,22.30
2018-03-27T14:34:03.238Z,21.40
2018-03-27T14:36:30.698Z,23.07
2018-03-27T14:38:58.969Z,21.90
2018-03-27T14:41:26.424Z,21.37
2018-03-27T14:43:53.880Z,22.03
2018-03-27T14:46:21.336Z,19.40
2018-03-27T14:48:48.796Z,20.97
2018-03-27T14:51:16.248Z,21.30
2018-03-27T14:53:43.713Z,21.70
2018-03-27T14:56:11.178Z,22.00
2018-03-27T14:58:38.647Z,22.33
2018-03-27T15:01:06.109Z,20.70
2018-03-27T15:03:33.566Z,21.47
2018-03-27T15:06:01.016Z,18.50
2018-03-27T15:08:28.473Z,21.33
2018-03-27T15:10:55.924Z,17.67
2018-03-27T15:13:23.380Z,16.13
2018-03-27T15:15:50.833Z,18.20
2018-03-27T15:18:18.288Z,16.80
2018-03-27T15:20:45.741Z,18.17
2018-03-27T15:23:13.195Z,19.93
2018-03-27T15:25:40.652Z,17.57
2018-03-27T15:28:08.108Z,16.30
2018-03-27T15:30:35.563Z,19.63
2018-03-27T15:33:03.021Z,19.70
2018-03-27T15:35:30.480Z,20.30
2018-03-27T15:37:57.936Z,20.70
2018-03-27T15:40:25.387Z,20.70
2018-03-27T15:42:52.841Z,21.90
2018-03-27T15:45:20.307Z,17.23
2018-03-27T15:47:47.768Z,17.87
2018-03-27T15:50:15.224Z,16.20
2018-03-27T15:52:42.678Z,16.93
2018-03-27T15:55:10.181Z,17.47
2018-03-27T15:57:37.658Z,20.17
2018-03-27T16:00:05.889Z,19.77
2018-03-27T16:02:34.104Z,21.27
2018-03-27T16:05:02.328Z,23.93
2018-03-27T16:07:29.776Z,18.40
2018-03-27T16:09:57.226Z,21.37
2018-03-27T16:12:24.680Z,22.70
2018-03-27T16:14:52.136Z,24.80
2018-03-27T16:17:19.591Z,30.43
2018-03-27T16:19:47.042Z,27.27
2018-03-27T16:22:14.501Z,22.60
2018-03-27T16:24:41.944Z,21.00
2018-03-27T16:27:09.407Z,24.83
2018-03-27T16:29:36.907Z,23.63
2018-03-27T16:32:04.406Z,24.87
2018-03-27T16:34:32.651Z,21.43
2018-03-27T16:37:00.114Z,19.87
2018-03-27T16:39:27.570Z,21.30
2018-03-27T16:41:55.017Z,19.43
2018-03-27T16:44:22.464Z,24.97
2018-03-27T16:46:50.758Z,23.10
2018-03-27T16:49:18.999Z,23.20
2018-03-27T16:51:46.452Z,22.00
2018-03-27T16:54:13.911Z,20.87
2018-03-27T16:56:41.365Z,24.97
2018-03-27T16:59:08.812Z,22.40
2018-03-27T17:01:36.259Z,26.47
2018-03-27T17:04:03.708Z,23.50
2018-03-27T17:06:31.151Z,21.77
2018-03-27T17:08:58.600Z,22.87
2018-03-27T17:11:26.816Z,23.13
2018-03-27T17:13:54.264Z,23.00
2018-03-27T17:16:21.718Z,22.60
2018-03-27T17:18:49.167Z,23.23
2018-03-27T17:21:16.615Z,25.07
2018-03-27T17:23:44.072Z,21.00
2018-03-27T17:26:11.532Z,22.97
2018-03-27T17:28:39.300Z,20.10
2018-03-27T17:31:06.759Z,19.33
2018-03-27T17:33:34.216Z,21.27
2018-03-27T17:36:01.680Z,20.73
2018-03-27T17:38:29.134Z,22.83
2018-03-27T17:40:56.600Z,20.53
2018-03-27T17:43:24.048Z,20.50
2018-03-27T17:45:51.512Z,28.37
2018-03-27T17:48:19.029Z,30.27
2018-03-27T17:50:47.256Z,28.43
2018-03-27T17:53:14.713Z,25.63
2018-03-27T17:55:42.203Z,22.50
2018-03-27T17:58:09.688Z,22.30
2018-03-27T18:00:37.140Z,25.07
2018-03-27T18:03:04.594Z,22.17
2018-03-27T18:05:32.821Z,23.87
2018-03-27T18:08:00.270Z,32.73
2018-03-27T18:10:27.756Z,29.13
2018-03-27T18:12:55.227Z,27.67
2018-03-27T18:15:23.491Z,25.63
2018-03-27T18:17:50.943Z,24.93
2018-03-27T18:20:18.413Z,27.43
2018-03-27T18:22:45.888Z,27.90
2018-03-27T18:25:13.367Z,27.93
2018-03-27T18:27:40.832Z,28.40
2018-03-27T18:30:08.291Z,26.50
2018-03-27T18:32:35.753Z,31.40
2018-03-27T18:35:03.249Z,25.07
2018-03-27T18:37:30.771Z,26.03
2018-03-27T18:39:58.337Z,26.27
2018-03-27T18:42:25.800Z,26.90
2018-03-27T18:44:53.245Z,30.53
2018-03-27T18:47:20.725Z,28.83
2018-03-27T18:49:48.192Z,27.53
2018-03-27T18:52:16.410Z,27.93
2018-03-27T18:54:43.868Z,33.03
2018-03-27T18:57:11.316Z,26.73
2018-03-27T18:59:38.785Z,26.27
2018-03-27T19:02:06.239Z,25.10
2018-03-27T19:04:33.696Z,28.43
2018-03-27T19:07:01.148Z,31.43
2018-03-27T19:09:28.597Z,27.53
2018-03-27T19:11:56.075Z,26.73
2018-03-27T19:14:23.532Z,28.50
2018-03-27T19:16:50.992Z,30.77
2018-03-27T19:19:18.454Z,26.53
2018-03-27T19:21:45.921Z,29.60
2018-03-27T19:24:13.408Z,26.83
2018-03-27T19:26:40.846Z,25.63
2018-03-27T19:29:08.301Z,26.37
2018-03-27T19:31:35.754Z,24.93
2018-03-27T19:34:03.269Z,27.20
2018-03-27T19:36:30.798Z,24.67
2018-03-27T19:38:59.103Z,24.87
2018-03-27T19:41:26.580Z,24.80
2018-03-27T19:43:54.034Z,27.93
2018-03-27T19:46:21.560Z,25.90
2018-03-27T19:48:49.026Z,22.23
2018-03-27T19:51:16.483Z,25.47
2018-03-27T19:53:43.936Z,25.07
2018-03-27T19:56:11.400Z,24.00
2018-03-27T19:58:38.847Z,23.57
2018-03-27T20:01:06.297Z,26.77
2018-03-27T20:03:33.756Z,26.93
2018-03-27T20:06:01.250Z,25.37
2018-03-27T20:08:28.714Z,37.47
2018-03-27T20:10:56.951Z,41.27
2018-03-27T20:13:24.400Z,33.23
2018-03-27T20:15:51.897Z,34.27
2018-03-27T20:18:19.373Z,31.17
2018-03-27T20:20:46.863Z,35.80
2018-03-27T20:23:15.081Z,28.17
2018-03-27T20:25:42.540Z,29.23
2018-03-27T20:28:10.026Z,30.50
2018-03-27T20:30:37.452Z,26.23
2018-03-27T20:33:04.899Z,30.47
2018-03-27T20:35:32.348Z,25.57
2018-03-27T20:37:59.795Z,27.23
2018-03-27T20:40:27.248Z,27.30
2018-03-27T20:42:54.696Z,23.70
2018-03-27T20:45:22.141Z,23.20
2018-03-27T20:47:49.585Z,22.07
2018-03-27T20:50:17.797Z,26.30
2018-03-27T20:52:45.248Z,26.73
2018-03-27T20:55:12.705Z,25.37
2018-03-27T20:57:40.167Z,26.80
2018-03-27T21:00:07.640Z,24.07
2018-03-27T21:02:35.080Z,24.33
2018-03-27T21:05:02.531Z,27.80
2018-03-27T21:07:29.992Z,29.30
2018-03-27T21:09:57.449Z,30.73
2018-03-27T21:12:24.900Z,30.07
2018-03-27T21:14:52.356Z,31.37
2018-03-27T21:17:19.812Z,31.73
2018-03-27T21:19:47.264Z,29.37
2018-03-27T21:22:14.721Z,29.50
2018-03-27T21:24:42.169Z,29.57
2018-03-27T21:27:09.624Z,26.60
2018-03-27T21:29:37.076Z,29.30
2018-03-27T21:32:04.529Z,30.83
2018-03-27T21:34:32.744Z,30.43
2018-03-27T21:37:00.200Z,28.40
2018-03-27T21:39:27.664Z,31.63
2018-03-27T21:41:55.111Z,33.77
2018-03-27T21:44:22.561Z,30.73
2018-03-27T21:46:50.007Z,33.43
2018-03-27T21:49:17.458Z,31.50
2018-03-27T21:51:44.913Z,29.43
2018-03-27T21:54:12.356Z,30.50
2018-03-27T21:56:39.856Z,30.27
2018-03-27T21:59:08.023Z,32.87
2018-03-27T22:01:35.470Z,30.17
2018-03-27T22:04:02.920Z,31.87
2018-03-27T22:06:30.372Z,30.73
2018-03-27T22:08:57.829Z,32.83
2018-03-27T22:11:25.290Z,36.30
2018-03-27T22:13:52.735Z,34.63
2018-03-27T22:16:20.216Z,38.07
2018-03-27T22:18:47.643Z,38.33
2018-03-27T22:21:15.105Z,34.13
2018-03-27T22:23:42.548Z,37.33
2018-03-27T22:26:10.001Z,39.37
2018-03-27T22:28:38.212Z,34.97
2018-03-27T22:31:05.680Z,42.57
2018-03-27T22:33:33.892Z,41.00
2018-03-27T22:36:02.184Z,37.47
2018-03-27T22:38:29.639Z,36.20
2018-03-27T22:40:57.088Z,40.70
2018-03-27T22:43:25.301Z,35.97
2018-03-27T22:45:52.745Z,36.97
2018-03-27T22:48:20.193Z,41.63
2018-03-27T22:50:47.640Z,41.83
2018-03-27T22:53:15.105Z,40.70
2018-03-27T22:55:42.556Z,42.07
2018-03-27T22:58:10.011Z,38.97
2018-03-27T23:00:37.464Z,38.43
2018-03-27T23:03:04.928Z,39.23
2018-03-27T23:05:32.372Z,43.27
2018-03-27T23:08:00.593Z,38.93
2018-03-27T23:10:28.037Z,41.27
2018-03-27T23:12:55.484Z,37.53
2018-03-27T23:15:22.937Z,44.07
2018-03-27T23:17:50.392Z,42.93
2018-03-27T23:20:17.841Z,37.57
2018-03-27T23:22:45.292Z,40.43
2018-03-27T23:25:12.744Z,38.33
2018-03-27T23:27:40.189Z,41.50
2018-03-27T23:30:08.413Z,41.97
2018-03-27T23:32:35.856Z,37.97
2018-03-27T23:35:03.329Z,41.17
2018-03-27T23:37:30.779Z,38.63
2018-03-27T23:39:58.232Z,36.10
2018-03-27T23:42:25.685Z,41.80
2018-03-27T23:44:53.134Z,37.83
2018-03-27T23:47:20.591Z,40.37
2018-03-27T23:49:48.044Z,39.20
2018-03-27T23:52:15.497Z,38.90
2018-03-27T23:54:42.948Z,40.27
2018-03-27T23:57:10.405Z,43.43
2018-03-27T23:59:37.843Z,41.97
